createdAt,value
2023-02-16T00:02:57.262Z,100.00
2023-02-16T00:07:48.977Z,100.00
2023-02-16T00:12:59.303Z,100.00
2023-02-16T00:17:50.964Z,100.00
2023-02-16T00:22:42.950Z,100.00
2023-02-16T00:27:35.123Z,100.00
2023-02-16T00:32:27.018Z,100.00
2023-02-16T00:37:18.896Z,100.00
2023-02-16T00:42:21.949Z,100.00
2023-02-16T00:47:28.544Z,100.00
2023-02-16T00:52:39.361Z,100.00
2023-02-16T00:57:37.829Z,100.00
2023-02-16T01:02:29.519Z,100.00
2023-02-16T01:07:39.599Z,100.00
2023-02-16T01:12:31.461Z,100.00
2023-02-16T01:17:24.605Z,100.00
2023-02-16T01:22:17.037Z,100.00
2023-02-16T01:27:13.563Z,100.00
2023-02-16T01:32:05.570Z,100.00
2023-02-16T01:36:57.450Z,100.00
2023-02-16T01:42:27.759Z,100.00
2023-02-16T01:47:37.010Z,100.00
2023-02-16T01:52:43.151Z,100.00
2023-02-16T01:57:46.758Z,100.00
2023-02-16T02:02:52.504Z,100.00
2023-02-16T02:08:04.318Z,100.00
2023-02-16T02:13:16.716Z,100.00
2023-02-16T02:18:08.605Z,100.00
2023-02-16T02:23:33.668Z,100.00
2023-02-16T02:28:58.116Z,100.00
2023-02-16T02:34:48.801Z,100.00
2023-02-16T02:45:24.075Z,100.00
2023-02-16T02:51:02.926Z,100.00
2023-02-16T02:56:16.976Z,100.00
2023-02-16T03:01:11.828Z,100.00
2023-02-16T03:06:13.761Z,100.00
2023-02-16T03:17:26.119Z,100.00
2023-02-16T03:22:36.507Z,100.00
2023-02-16T03:27:53.907Z,100.00
2023-02-16T03:32:47.562Z,100.00
2023-02-16T03:37:43.357Z,100.00
2023-02-16T03:42:35.121Z,100.00
2023-02-16T03:47:26.839Z,100.00
2023-02-16T03:52:18.677Z,100.00
2023-02-16T03:57:10.424Z,100.00
2023-02-16T04:02:02.146Z,100.00
2023-02-16T04:06:53.872Z,100.00
2023-02-16T04:12:04.029Z,100.00
2023-02-16T04:16:56.747Z,100.00
2023-02-16T04:21:48.505Z,100.00
2023-02-16T04:26:40.172Z,100.00
2023-02-16T04:31:32.000Z,100.00
2023-02-16T04:36:23.769Z,100.00
2023-02-16T04:41:15.495Z,100.00
2023-02-16T04:46:07.175Z,100.00
2023-02-16T04:50:58.887Z,100.00
2023-02-16T04:55:51.008Z,100.00
2023-02-16T05:57:19.461Z,100.00
2023-02-16T09:01:28.530Z,100.00
2023-02-16T09:48:37.352Z,100.00
2023-02-16T10:37:21.138Z,100.00
2023-02-16T10:42:48.533Z,100.00
2023-02-16T11:40:20.488Z,94.40
2023-02-16T12:30:17.752Z,95.52
2023-02-16T13:51:50.822Z,89.67
2023-02-16T14:43:55.133Z,76.30
2023-02-16T14:55:27.932Z,76.20
2023-02-16T16:29:56.025Z,87.71
2023-02-16T17:52:40.419Z,90.50
2023-02-16T18:18:01.624Z,89.53
2023-02-16T20:20:47.917Z,100.00
2023-02-16T20:56:26.384Z,100.00
2023-02-16T21:27:06.755Z,100.00
2023-02-16T21:42:12.079Z,100.00
2023-02-16T21:52:30.542Z,100.00
2023-02-16T22:17:50.225Z,100.00
2023-02-16T22:38:38.748Z,100.00
2023-02-16T23:09:23.114Z,100.00
2023-02-16T23:14:19.439Z,100.00
2023-02-16T23:19:15.418Z,100.00
2023-02-16T23:29:15.491Z,100.00
2023-02-16T23:34:09.149Z,100.00
2023-02-16T23:39:05.658Z,100.00
2023-02-16T23:44:01.659Z,100.00
2023-02-16T23:48:55.152Z,100.00
2023-02-16T23:53:47.237Z,100.00
2023-02-16T23:58:43.347Z,100.00
